Time;durP1;ratioP1;P1;durP2;ratioP2;P2;SDS_P1;SDS_P2;PMS_P1;PMS_P2;Temp;Humidity;BMP_temperature;BMP_pressure;BME280_temperature;BME280_humidity;BME280_pressure;Samples;Min_cycle;Max_cycle;Signal;HPM_P1;HPM_P2
2022/08/12 00:45:13;;;;;;;2.90;2.00;;;26.50;49.60;;;;;;5111993;28;20031;-76
2022/08/12 00:47:40;;;;;;;3.25;2.20;;;26.50;49.60;;;;;;5113902;28;20036;-77
2022/08/12 00:50:07;;;;;;;3.60;2.20;;;26.60;49.40;;;;;;5112151;28;20066;-77
2022/08/12 00:52:34;;;;;;;4.30;2.35;;;26.70;49.50;;;;;;5097787;28;20044;-77
2022/08/12 00:55:03;;;;;;;3.42;2.08;;;26.70;49.20;;;;;;5106988;28;20405;-77
2022/08/12 00:57:36;;;;;;;3.50;2.20;;;26.80;49.10;;;;;;5080142;28;20081;-77
2022/08/12 01:00:11;;;;;;;4.07;2.10;;;26.70;49.30;;;;;;5098376;28;20020;-77
2022/08/12 01:02:40;;;;;;;3.03;2.10;;;26.20;49.80;;;;;;5109198;28;20469;-77
2022/08/12 01:13:33;;;;;;;3.47;2.00;;;25.80;50.80;;;;;;5107603;28;20073;-77
2022/08/12 01:16:03;;;;;;;3.78;2.20;;;25.50;51.20;;;;;;5108984;28;20059;-77
2022/08/12 01:18:31;;;;;;;3.92;2.33;;;25.40;51.20;;;;;;5093497;28;20028;-77
2022/08/12 01:21:16;;;;;;;3.45;2.20;;;25.60;51.30;;;;;;5093159;28;20035;-77
2022/08/12 01:24:04;;;;;;;3.20;2.30;;;25.60;51.00;;;;;;5103874;27;20374;-77
2022/08/12 01:26:32;;;;;;;4.65;2.15;;;25.40;51.40;;;;;;5095799;28;20020;-77
2022/08/12 01:29:00;;;;;;;3.85;2.25;;;25.60;51.50;;;;;;5103478;28;20024;-77
2022/08/12 01:31:28;;;;;;;4.10;2.10;;;25.80;51.20;;;;;;5102244;28;20157;-77
2022/08/12 01:34:11;;;;;;;3.88;2.10;;;26.10;50.80;;;;;;5093184;28;20113;-77
2022/08/12 01:36:45;;;;;;;3.22;2.30;;;25.60;51.30;;;;;;5095837;28;20394;-78
2022/08/12 01:39:14;;;;;;;4.10;2.22;;;25.30;52.00;;;;;;5106794;28;20072;-77
2022/08/12 01:41:46;;;;;;;2.85;2.00;;;25.50;51.60;;;;;;5100774;28;20024;-77
2022/08/12 01:44:14;;;;;;;3.67;2.30;;;25.80;51.30;;;;;;5078230;28;20043;-77
2022/08/12 01:46:56;;;;;;;4.03;2.50;;;25.90;51.00;;;;;;5079670;28;20487;-77
2022/08/12 01:49:59;;;;;;;3.63;2.10;;;25.90;51.00;;;;;;5095228;28;20490;-77
2022/08/12 01:52:45;;;;;;;3.50;2.30;;;25.80;51.00;;;;;;5105598;28;20057;-76
2022/08/12 01:55:14;;;;;;;3.50;2.10;;;25.80;51.20;;;;;;5077859;28;20500;-77
2022/08/12 01:57:48;;;;;;;3.80;2.33;;;25.70;50.90;;;;;;5101530;28;20024;-77
2022/08/12 02:00:17;;;;;;;3.10;2.00;;;25.10;51.50;;;;;;5098083;28;20020;-75
2022/08/12 02:03:07;;;;;;;3.33;2.35;;;24.30;52.80;;;;;;5095574;28;20028;-74
2022/08/12 02:11:59;;;;;;;3.70;2.20;;;24.70;53.20;;;;;;5101136;28;20461;-77
2022/08/12 02:14:50;;;;;;;8.98;2.40;;;25.10;51.70;;;;;;5110942;28;20023;-76
2022/08/12 02:17:31;;;;;;;3.70;2.30;;;24.90;51.50;;;;;;5100353;28;20022;-74
2022/08/12 02:20:12;;;;;;;3.90;2.38;;;24.30;52.40;;;;;;5095207;28;20081;-77
2022/08/12 02:22:43;;;;;;;3.92;2.60;;;24.40;52.80;;;;;;5099283;28;20036;-78
2022/08/12 02:25:24;;;;;;;3.45;2.20;;;24.70;52.30;;;;;;5112098;28;20059;-76
2022/08/12 02:27:52;;;;;;;3.45;2.25;;;25.00;51.40;;;;;;5101456;28;20020;-76
2022/08/12 02:30:21;;;;;;;4.80;2.35;;;25.10;51.40;;;;;;5101913;28;20064;-77
2022/08/12 02:32:50;;;;;;;4.28;2.40;;;25.10;51.40;;;;;;5102105;28;20021;-77
2022/08/12 02:35:18;;;;;;;3.50;2.50;;;25.00;51.60;;;;;;5097762;28;20486;-76
2022/08/12 02:37:47;;;;;;;5.53;2.60;;;25.00;51.50;;;;;;5103488;28;20032;-75
2022/08/12 02:40:15;;;;;;;4.13;2.70;;;24.90;52.20;;;;;;5104720;28;20379;-74
2022/08/12 02:42:53;;;;;;;4.22;2.83;;;24.40;52.60;;;;;;5098392;28;20107;-75
2022/08/12 02:45:30;;;;;;;3.38;2.20;;;24.30;52.80;;;;;;5101138;28;20020;-74
2022/08/12 02:47:58;;;;;;;3.67;2.38;;;24.70;52.50;;;;;;5098124;28;20031;-75
2022/08/12 02:50:30;;;;;;;3.97;2.67;;;24.90;52.10;;;;;;5098450;28;20024;-75
2022/08/12 02:52:57;;;;;;;5.25;2.40;;;24.90;52.10;;;;;;5079895;28;20051;-74
2022/08/12 02:55:27;;;;;;;3.63;2.20;;;24.80;52.00;;;;;;5082010;28;20466;-75
2022/08/12 02:57:54;;;;;;;3.47;2.20;;;24.60;52.80;;;;;;5095403;28;20028;-74
2022/08/12 03:00:20;;;;;;;3.35;2.40;;;24.70;52.60;;;;;;5098046;28;20056;-77
2022/08/12 03:02:50;;;;;;;4.30;2.28;;;24.90;52.70;;;;;;5097070;28;20108;-74
2022/08/12 03:05:18;;;;;;;3.75;2.65;;;24.80;53.80;;;;;;5095520;28;20046;-75
2022/08/12 03:07:52;;;;;;;3.95;2.42;;;24.60;53.30;;;;;;5097157;28;20107;-77
2022/08/12 03:10:22;;;;;;;3.65;2.22;;;24.70;52.90;;;;;;5098092;28;20483;-74
2022/08/12 03:12:53;;;;;;;5.20;2.63;;;24.70;53.20;;;;;;5098678;28;20059;-75
2022/08/12 03:15:22;;;;;;;3.75;2.50;;;24.50;53.10;;;;;;5097076;28;20046;-75
2022/08/12 03:18:00;;;;;;;4.68;2.60;;;24.70;52.70;;;;;;5113927;27;20034;-74
2022/08/12 03:20:26;;;;;;;3.85;2.70;;;24.60;53.20;;;;;;5113248;28;20028;-76
2022/08/12 03:22:52;;;;;;;5.38;2.70;;;24.60;52.90;;;;;;5098261;28;20069;-76
2022/08/12 03:25:26;;;;;;;3.95;2.67;;;24.30;53.10;;;;;;5103135;28;20042;-76
2022/08/12 03:27:57;;;;;;;3.58;2.40;;;23.70;54.50;;;;;;5113217;28;20019;-76
2022/08/12 03:30:31;;;;;;;3.90;2.65;;;23.50;55.00;;;;;;5108073;28;20038;-76
2022/08/12 03:33:01;;;;;;;5.00;2.70;;;23.70;54.80;;;;;;5108779;28;20110;-77
2022/08/12 03:35:31;;;;;;;3.67;2.40;;;24.00;53.90;;;;;;5111082;28;20035;-76
2022/08/12 03:38:05;;;;;;;4.07;2.85;;;24.30;53.30;;;;;;5109880;28;20147;-76
2022/08/12 04:00:23;;;;;;;4.07;2.70;;;23.50;55.70;;;;;;5098381;28;20039;-76
2022/08/12 04:03:00;;;;;;;4.00;3.00;;;23.40;56.40;;;;;;5111806;27;20030;-74
2022/08/12 04:05:31;;;;;;;5.22;2.90;;;23.00;57.00;;;;;;5094248;28;20038;-75
2022/08/12 04:08:02;;;;;;;5.10;2.58;;;23.20;56.60;;;;;;5103079;28;20428;-75
2022/08/12 04:13:24;;;;;;;4.72;3.45;;;23.80;55.30;;;;;;5031929;28;20048;-75
2022/08/12 04:15:50;;;;;;;5.35;3.20;;;24.00;54.40;;;;;;5031996;28;20068;-75
2022/08/12 04:18:16;;;;;;;4.65;2.70;;;24.30;54.10;;;;;;5012475;28;20535;-75
2022/08/12 04:20:43;;;;;;;6.25;3.38;;;24.40;53.90;;;;;;5011342;28;20041;-76
2022/08/12 04:23:14;;;;;;;6.53;3.63;;;24.50;53.30;;;;;;5026322;28;20114;-75
2022/08/12 04:25:41;;;;;;;4.82;3.60;;;24.50;53.70;;;;;;5030358;28;20044;-75
2022/08/12 04:28:08;;;;;;;5.22;3.28;;;24.50;53.40;;;;;;5015138;28;20396;-76
2022/08/12 04:30:35;;;;;;;5.82;3.60;;;24.20;53.60;;;;;;5012122;28;20401;-76
2022/08/12 04:33:01;;;;;;;5.10;3.28;;;24.00;54.30;;;;;;5012069;28;20096;-75
2022/08/12 04:35:27;;;;;;;4.35;3.20;;;23.80;54.80;;;;;;5012106;28;20045;-75
2022/08/12 04:37:55;;;;;;;4.60;3.15;;;23.20;55.80;;;;;;5011589;28;20038;-75
2022/08/12 04:40:23;;;;;;;4.88;2.60;;;23.20;56.20;;;;;;5029604;28;20369;-76
2022/08/12 04:42:50;;;;;;;5.18;2.75;;;23.40;56.00;;;;;;5031825;28;20029;-75
2022/08/12 04:45:19;;;;;;;4.10;2.78;;;23.50;55.90;;;;;;5030881;28;20017;-77
2022/08/12 04:47:45;;;;;;;5.15;2.80;;;24.10;55.70;;;;;;5028829;28;20108;-77
2022/08/12 04:50:15;;;;;;;6.15;2.63;;;24.30;55.10;;;;;;5056991;28;20441;-77
2022/08/12 04:52:41;;;;;;;5.65;2.75;;;24.40;54.90;;;;;;5101816;28;20513;-76
2022/08/12 04:55:09;;;;;;;3.20;2.30;;;24.60;54.90;;;;;;5103650;28;20082;-76
2022/08/12 04:57:36;;;;;;;3.80;2.30;;;24.80;54.20;;;;;;5103700;28;20035;-76
2022/08/12 05:00:10;;;;;;;4.75;3.60;;;24.90;53.70;;;;;;5113583;28;20023;-76
2022/08/12 05:02:36;;;;;;;6.60;3.03;;;25.00;52.60;;;;;;5096684;28;20074;-78
2022/08/12 05:05:03;;;;;;;6.45;3.83;;;25.30;52.80;;;;;;5090523;28;20473;-76
2022/08/12 05:07:29;;;;;;;5.10;2.60;;;25.60;52.70;;;;;;5090220;28;20093;-76
2022/08/12 05:09:54;;;;;;;4.43;2.60;;;25.80;51.10;;;;;;5091257;28;20475;-76
2022/08/12 05:12:22;;;;;;;5.57;2.47;;;25.50;51.50;;;;;;5090842;28;20032;-76
2022/08/12 05:14:49;;;;;;;3.40;2.40;;;25.80;51.40;;;;;;5091237;28;20047;-76
2022/08/12 05:17:15;;;;;;;3.55;2.47;;;26.20;50.80;;;;;;5092165;28;20028;-76
2022/08/12 05:19:41;;;;;;;4.10;2.30;;;26.30;50.80;;;;;;5092252;28;20028;-76
2022/08/12 05:22:07;;;;;;;3.80;2.42;;;26.60;50.70;;;;;;5091392;28;20030;-76
2022/08/12 05:24:33;;;;;;;4.05;2.50;;;26.70;50.50;;;;;;5092148;28;20016;-76
2022/08/12 05:26:59;;;;;;;3.72;2.40;;;26.60;50.30;;;;;;5092560;28;20024;-77
2022/08/12 05:29:27;;;;;;;5.68;2.30;;;26.70;49.80;;;;;;5093077;28;20048;-76
2022/08/12 05:31:55;;;;;;;3.50;2.35;;;26.60;49.40;;;;;;5092689;28;20076;-76
2022/08/12 05:34:20;;;;;;;4.25;2.83;;;26.10;49.90;;;;;;5092522;28;20020;-77
2022/08/12 05:36:46;;;;;;;3.10;2.47;;;25.70;51.50;;;;;;5092882;28;20039;-77
2022/08/12 05:39:12;;;;;;;5.70;2.90;;;26.20;50.60;;;;;;5075193;28;20020;-76
2022/08/12 05:41:38;;;;;;;3.70;2.63;;;26.70;50.60;;;;;;5093409;28;20455;-76
2022/08/12 05:44:06;;;;;;;5.68;2.50;;;26.90;49.80;;;;;;5092926;28;20020;-76
2022/08/12 05:46:33;;;;;;;3.63;2.30;;;26.50;49.70;;;;;;5093014;28;20074;-76
2022/08/12 05:48:59;;;;;;;3.58;2.28;;;25.70;49.90;;;;;;5092916;28;20386;-76
2022/08/12 05:51:27;;;;;;;4.95;2.30;;;25.50;50.70;;;;;;5093034;28;20024;-76
2022/08/12 05:53:54;;;;;;;3.55;2.45;;;25.50;50.20;;;;;;5092563;28;20051;-76
2022/08/12 05:56:22;;;;;;;4.00;2.40;;;25.90;50.70;;;;;;5092919;28;20039;-77
2022/08/12 05:58:50;;;;;;;4.07;2.47;;;26.50;50.30;;;;;;5093343;28;20028;-77
2022/08/12 06:01:16;;;;;;;3.97;2.30;;;27.10;49.90;;;;;;5093255;28;20021;-76
2022/08/12 06:03:42;;;;;;;4.10;2.70;;;27.50;48.40;;;;;;5093076;28;20043;-76
2022/08/12 06:06:09;;;;;;;3.80;2.33;;;27.30;48.30;;;;;;5092897;28;20532;-77
2022/08/12 06:08:35;;;;;;;3.78;2.60;;;26.80;49.00;;;;;;5093231;28;20099;-76
2022/08/12 06:11:03;;;;;;;4.93;2.55;;;26.50;50.10;;;;;;5093213;28;20072;-76
2022/08/12 06:13:29;;;;;;;4.68;2.60;;;26.80;49.80;;;;;;5092727;28;20166;-76
2022/08/12 06:15:56;;;;;;;3.20;2.30;;;27.10;49.60;;;;;;5092902;28;20032;-76
2022/08/12 06:18:22;;;;;;;4.03;2.25;;;27.60;48.90;;;;;;5093094;28;20042;-77
2022/08/12 06:20:48;;;;;;;4.97;2.45;;;27.80;48.50;;;;;;5092680;28;20024;-76
2022/08/12 06:23:14;;;;;;;5.60;2.50;;;28.00;48.60;;;;;;5092877;28;20070;-76
2022/08/12 06:25:42;;;;;;;3.85;2.20;;;28.00;48.10;;;;;;5092946;28;20039;-77
2022/08/12 06:28:19;;;;;;;6.43;2.30;;;28.00;48.50;;;;;;5092677;28;20020;-77
2022/08/12 06:30:45;;;;;;;3.20;2.28;;;27.60;48.50;;;;;;5092634;28;20055;-79
2022/08/12 06:33:12;;;;;;;3.00;2.22;;;27.60;48.50;;;;;;5092354;28;20013;-76
2022/08/12 06:35:40;;;;;;;4.07;2.40;;;27.40;49.10;;;;;;5074207;28;20091;-76
2022/08/12 06:38:16;;;;;;;4.50;2.38;;;27.10;49.20;;;;;;5092845;28;20025;-77
2022/08/12 06:43:32;;;;;;;4.50;2.63;;;27.40;48.80;;;;;;5092707;28;20026;-77
2022/08/12 06:45:58;;;;;;;4.25;2.55;;;27.70;49.30;;;;;;5092847;28;20491;-77
2022/08/12 06:48:27;;;;;;;3.75;2.30;;;27.90;48.20;;;;;;5092501;28;20028;-75
2022/08/12 06:50:55;;;;;;;4.78;2.80;;;28.10;48.50;;;;;;5092509;28;20032;-77
2022/08/12 06:53:22;;;;;;;7.13;2.70;;;28.30;48.40;;;;;;5092297;28;20449;-76
2022/08/12 06:55:48;;;;;;;4.68;2.60;;;28.40;48.00;;;;;;5092536;28;20036;-74
2022/08/12 06:58:15;;;;;;;4.18;2.50;;;28.60;48.30;;;;;;5092329;28;20020;-73
2022/08/12 07:00:45;;;;;;;5.03;2.53;;;28.70;48.00;;;;;;5092297;28;20471;-74
2022/08/12 07:03:16;;;;;;;4.00;2.45;;;28.90;47.50;;;;;;5091920;28;20029;-73
2022/08/12 07:05:42;;;;;;;3.42;2.35;;;29.00;47.60;;;;;;5093303;28;20036;-74
2022/08/12 07:08:09;;;;;;;3.63;2.72;;;29.00;46.80;;;;;;5095737;28;20110;-75
2022/08/12 07:10:41;;;;;;;4.68;2.50;;;29.20;46.90;;;;;;5077666;28;20032;-74
2022/08/12 07:13:07;;;;;;;4.55;2.42;;;29.50;46.80;;;;;;5095824;28;20038;-76
2022/08/12 07:15:34;;;;;;;7.93;2.35;;;29.20;46.90;;;;;;5095523;28;20035;-77
2022/08/12 07:18:10;;;;;;;6.68;2.85;;;28.80;47.80;;;;;;5078000;28;20036;-76
2022/08/12 07:20:40;;;;;;;4.13;2.47;;;28.80;48.00;;;;;;5095818;28;20020;-74
2022/08/12 07:23:06;;;;;;;3.85;2.53;;;29.20;47.40;;;;;;5095592;28;20024;-74
2022/08/12 07:25:35;;;;;;;3.95;2.50;;;29.50;47.50;;;;;;5095821;28;20027;-73
2022/08/12 07:28:03;;;;;;;3.43;2.30;;;29.80;47.40;;;;;;5095570;28;20047;-74
2022/08/12 07:30:33;;;;;;;6.95;3.15;;;30.10;46.90;;;;;;5095382;28;20047;-74
2022/08/12 07:33:02;;;;;;;4.47;2.50;;;30.30;45.70;;;;;;5077890;28;20107;-73
2022/08/12 07:35:29;;;;;;;4.80;2.63;;;30.50;46.20;;;;;;5095417;28;20550;-74
2022/08/12 07:37:56;;;;;;;3.42;2.58;;;30.50;46.50;;;;;;5095147;28;20051;-74
2022/08/12 07:40:23;;;;;;;3.70;2.50;;;30.40;46.50;;;;;;5095425;28;20028;-77
2022/08/12 07:42:49;;;;;;;3.78;2.50;;;29.40;47.60;;;;;;5095468;28;20020;-74
2022/08/12 07:45:16;;;;;;;5.07;2.60;;;29.50;47.60;;;;;;5095691;28;20012;-76
2022/08/12 07:47:42;;;;;;;4.80;2.50;;;29.00;47.70;;;;;;5095477;28;20486;-74
2022/08/12 07:50:13;;;;;;;7.03;2.60;;;29.00;48.80;;;;;;5095087;28;20107;-74
2022/08/12 07:52:42;;;;;;;4.40;2.50;;;29.20;47.90;;;;;;5094742;28;20063;-74
2022/08/12 07:55:09;;;;;;;4.65;2.70;;;29.30;47.50;;;;;;5095020;28;20428;-75
2022/08/12 07:57:34;;;;;;;3.83;2.58;;;29.60;47.00;;;;;;5095445;28;20028;-77
2022/08/12 08:00:04;;;;;;;4.57;2.47;;;28.80;47.70;;;;;;5094976;28;20032;-73
2022/08/12 08:02:35;;;;;;;6.40;2.55;;;28.80;49.40;;;;;;5095450;28;20031;-75
2022/08/12 08:05:02;;;;;;;3.58;2.47;;;29.30;48.20;;;;;;5094561;28;20028;-74
2022/08/12 08:07:29;;;;;;;4.65;2.45;;;29.90;47.60;;;;;;5094846;28;20036;-74
2022/08/12 08:10:06;;;;;;;3.80;2.28;;;30.50;47.30;;;;;;5094666;28;20028;-74
2022/08/12 08:15:16;;;;;;;3.72;2.50;;;30.80;46.40;;;;;;5094722;28;20480;-82
2022/08/12 08:18:01;;;;;;;4.57;2.78;;;30.90;47.20;;;;;;5094187;28;20523;-74
2022/08/12 08:20:36;;;;;;;4.57;2.50;;;31.00;46.30;;;;;;5094496;28;20113;-75
2022/08/12 08:23:06;;;;;;;4.78;2.38;;;31.30;47.10;;;;;;5087826;28;20035;-75
2022/08/12 08:25:33;;;;;;;3.38;2.50;;;31.30;46.40;;;;;;5094418;28;20383;-75
2022/08/12 08:28:07;;;;;;;4.55;2.53;;;31.30;45.90;;;;;;5094567;28;20093;-74
2022/08/12 08:30:37;;;;;;;4.40;2.58;;;31.40;46.40;;;;;;5094566;28;20028;-73
2022/08/12 08:33:04;;;;;;;4.75;2.67;;;31.50;46.20;;;;;;5094510;28;20032;-73
2022/08/12 08:35:30;;;;;;;5.75;2.78;;;31.60;45.80;;;;;;5094261;28;20035;-74
2022/08/12 08:38:13;;;;;;;4.85;2.80;;;31.70;45.50;;;;;;5094411;28;20111;-74
2022/08/12 08:43:28;;;;;;;4.85;2.67;;;31.30;47.50;;;;;;5094514;28;20069;-79
2022/08/12 08:45:55;;;;;;;5.07;2.60;;;31.40;47.20;;;;;;5093751;28;20032;-73
2022/08/12 08:48:25;;;;;;;5.88;2.72;;;31.40;46.00;;;;;;5094040;28;20115;-74
2022/08/12 08:50:51;;;;;;;5.18;2.95;;;31.50;45.60;;;;;;5094051;28;20128;-78
2022/08/12 08:53:17;;;;;;;4.60;2.85;;;31.50;46.50;;;;;;5093992;28;20040;-73
2022/08/12 08:55:43;;;;;;;5.28;2.78;;;31.60;46.50;;;;;;5093891;28;20481;-75
2022/08/12 08:58:10;;;;;;;4.63;2.40;;;31.70;45.80;;;;;;5093735;28;20074;-74
2022/08/12 09:00:39;;;;;;;3.60;2.50;;;31.80;46.50;;;;;;5094143;28;20027;-74
2022/08/12 09:03:06;;;;;;;4.38;2.63;;;31.30;45.50;;;;;;5093942;28;20024;-77
2022/08/12 09:05:32;;;;;;;8.10;2.80;;;31.20;46.10;;;;;;5093607;28;20024;-73
2022/08/12 09:08:01;;;;;;;7.07;2.70;;;31.60;46.20;;;;;;5093804;28;20073;-76
2022/08/12 09:10:27;;;;;;;3.10;2.38;;;31.90;45.50;;;;;;5093513;28;20084;-77
2022/08/12 09:15:38;;;;;;;4.82;2.60;;;32.70;45.20;;;;;;5093733;28;20072;-76
2022/08/12 09:18:06;;;;;;;4.78;2.78;;;32.80;43.70;;;;;;5094026;28;20410;-77
2022/08/12 09:20:34;;;;;;;3.95;2.60;;;31.50;45.10;;;;;;5093711;28;20028;-76
2022/08/12 09:23:01;;;;;;;6.15;2.83;;;31.30;47.10;;;;;;5093474;28;20360;-77
2022/08/12 09:25:30;;;;;;;3.30;2.58;;;31.90;47.90;;;;;;5093963;28;20069;-76
2022/08/12 09:28:03;;;;;;;3.92;2.92;;;32.50;45.80;;;;;;5093030;28;20024;-77
2022/08/12 09:30:29;;;;;;;3.58;2.80;;;32.60;45.00;;;;;;5093454;28;20016;-77
2022/08/12 09:32:56;;;;;;;5.53;2.97;;;32.80;44.00;;;;;;5093472;28;20028;-77
2022/08/12 09:35:32;;;;;;;8.82;4.32;;;32.90;44.90;;;;;;5093351;28;20111;-76
2022/08/12 09:38:00;;;;;;;5.53;2.88;;;32.90;43.50;;;;;;5093331;28;20020;-78
2022/08/12 09:40:27;;;;;;;6.70;3.55;;;33.00;44.20;;;;;;5093045;28;20024;-77
2022/08/12 09:45:39;;;;;;;4.65;3.20;;;31.90;44.90;;;;;;5093391;28;20034;-76
2022/08/12 09:48:05;;;;;;;5.53;3.05;;;32.00;44.30;;;;;;5093149;28;20027;-77
2022/08/12 09:50:32;;;;;;;4.80;3.08;;;32.40;43.30;;;;;;5092963;28;20260;-76
2022/08/12 09:53:10;;;;;;;4.32;3.25;;;32.70;43.50;;;;;;5093001;28;20116;-78
2022/08/12 09:55:40;;;;;;;5.35;3.30;;;32.90;43.90;;;;;;5093108;28;20039;-77
2022/08/12 09:58:06;;;;;;;4.95;3.20;;;32.80;44.30;;;;;;5093948;28;20375;-76
2022/08/12 10:00:33;;;;;;;16.38;15.10;;;32.60;44.30;;;;;;5093024;28;20509;-76
2022/08/12 10:03:03;;;;;;;3.80;2.90;;;32.60;44.00;;;;;;5093024;28;20410;-73
2022/08/12 10:05:35;;;;;;;5.83;3.13;;;32.50;44.10;;;;;;5092811;28;20033;-77
2022/08/12 10:08:04;;;;;;;4.95;3.10;;;32.70;44.30;;;;;;5092956;28;20039;-76
2022/08/12 10:10:30;;;;;;;4.07;3.28;;;32.80;44.00;;;;;;5093243;28;20024;-76
2022/08/12 10:15:43;;;;;;;4.70;3.17;;;33.30;44.00;;;;;;5092730;28;20394;-78
2022/08/12 10:18:10;;;;;;;5.85;3.03;;;33.30;43.20;;;;;;5093043;28;20021;-78
2022/08/12 10:20:37;;;;;;;6.47;3.00;;;33.40;43.60;;;;;;5092894;28;20028;-79
2022/08/12 10:23:04;;;;;;;8.55;3.33;;;33.50;42.70;;;;;;5092677;28;20426;-77
2022/08/12 10:30:59;;;;;;;6.53;3.20;;;33.50;45.00;;;;;;5093258;28;20097;-73
2022/08/12 10:33:25;;;;;;;5.55;3.40;;;33.10;45.20;;;;;;5093057;28;20399;-77
2022/08/12 10:35:52;;;;;;;5.93;3.38;;;33.00;44.10;;;;;;5092950;28;20024;-78
2022/08/12 10:38:18;;;;;;;4.75;2.80;;;33.20;43.50;;;;;;5093234;28;20031;-80
2022/08/12 10:43:41;;;;;;;4.75;2.70;;;33.40;44.30;;;;;;5097126;28;20418;-75
2022/08/12 10:46:17;;;;;;;5.22;2.90;;;33.50;43.10;;;;;;5096330;28;20077;-76
2022/08/12 10:48:52;;;;;;;4.20;2.72;;;33.70;43.20;;;;;;5096430;28;20120;-78
2022/08/12 10:51:18;;;;;;;4.38;2.80;;;33.70;42.90;;;;;;5096492;28;20020;-78
2022/08/12 10:53:49;;;;;;;4.10;3.10;;;33.80;43.20;;;;;;5096513;28;20048;-76
2022/08/12 10:56:16;;;;;;;5.35;2.97;;;33.20;43.90;;;;;;5078821;28;20494;-84
2022/08/12 10:58:43;;;;;;;4.45;3.10;;;33.20;44.10;;;;;;5096679;28;20047;-82
2022/08/12 11:01:09;;;;;;;4.00;2.65;;;33.20;44.00;;;;;;5096469;28;20063;-78
2022/08/12 11:03:37;;;;;;;4.65;2.70;;;33.30;44.30;;;;;;5096273;28;20024;-77
2022/08/12 11:06:05;;;;;;;7.60;3.00;;;33.60;43.80;;;;;;5096166;28;20016;-79
2022/08/12 11:08:33;;;;;;;7.43;2.80;;;33.50;43.40;;;;;;5096387;28;20031;-80
2022/08/12 11:10:59;;;;;;;7.20;2.88;;;33.20;43.50;;;;;;5096466;28;20073;-80
2022/08/12 11:13:24;;;;;;;5.03;2.50;;;33.00;43.90;;;;;;5096458;28;20032;-78
2022/08/12 11:15:51;;;;;;;14.43;2.53;;;33.00;43.40;;;;;;5096513;28;20077;-77
2022/08/12 11:18:17;;;;;;;3.17;2.25;;;33.30;42.60;;;;;;5096402;28;20070;-83
2022/08/12 11:20:43;;;;;;;4.43;2.38;;;33.70;41.20;;;;;;5096144;28;20107;-78
2022/08/12 11:23:08;;;;;;;5.38;2.35;;;33.70;41.70;;;;;;5096162;28;20263;-74
2022/08/12 11:25:34;;;;;;;3.70;2.50;;;33.50;41.80;;;;;;5096024;28;20025;-79
2022/08/12 11:28:00;;;;;;;4.55;2.30;;;32.90;42.60;;;;;;5096298;28;20028;-77
2022/08/12 11:30:25;;;;;;;3.47;2.42;;;33.20;42.00;;;;;;5095496;28;20032;-79
2022/08/12 11:32:51;;;;;;;4.57;2.40;;;33.60;42.70;;;;;;5095868;28;20028;-81
2022/08/12 11:35:20;;;;;;;6.15;2.50;;;33.90;43.10;;;;;;5095788;28;20027;-87
2022/08/12 11:37:46;;;;;;;6.18;2.60;;;33.10;43.70;;;;;;5095576;28;20372;-74
2022/08/12 11:40:11;;;;;;;4.07;2.50;;;32.80;44.10;;;;;;5095593;28;20512;-74
2022/08/12 11:42:37;;;;;;;5.68;2.55;;;33.00;43.90;;;;;;5095482;28;20624;-79
2022/08/12 11:45:04;;;;;;;4.93;2.50;;;33.40;43.20;;;;;;5095456;28;20070;-79
2022/08/12 11:47:29;;;;;;;7.05;2.60;;;33.70;43.10;;;;;;5095442;28;20081;-78
2022/08/12 11:49:55;;;;;;;5.15;2.58;;;33.70;42.90;;;;;;5095838;28;20024;-77
2022/08/12 11:52:21;;;;;;;4.40;2.60;;;33.70;43.90;;;;;;5094025;28;20052;-76
2022/08/12 11:54:46;;;;;;;5.28;2.85;;;33.70;43.30;;;;;;5095279;28;20035;-76
2022/08/12 11:57:12;;;;;;;7.93;2.53;;;33.70;43.20;;;;;;5095255;28;20050;-78
2022/08/12 11:59:38;;;;;;;3.42;2.40;;;33.70;43.50;;;;;;5095329;28;20490;-81
2022/08/12 12:02:03;;;;;;;5.03;2.40;;;33.60;43.10;;;;;;5076907;28;20020;-76
2022/08/12 12:04:29;;;;;;;4.25;2.55;;;33.50;43.90;;;;;;5094996;28;20020;-77
2022/08/12 12:06:55;;;;;;;3.30;2.30;;;33.40;43.60;;;;;;5076919;28;20030;-76
2022/08/12 12:09:20;;;;;;;4.65;2.65;;;33.40;43.60;;;;;;5094589;28;20101;-74
2022/08/12 12:11:46;;;;;;;3.47;2.50;;;33.30;43.60;;;;;;5094912;28;20057;-75
2022/08/12 12:14:12;;;;;;;5.25;2.90;;;33.20;43.50;;;;;;5094684;28;20039;-74
2022/08/12 12:16:37;;;;;;;6.55;2.65;;;33.40;43.50;;;;;;5094506;28;20072;-74
2022/08/12 12:19:04;;;;;;;3.90;2.50;;;33.40;43.50;;;;;;5076460;28;20032;-74
2022/08/12 12:21:30;;;;;;;5.03;2.60;;;33.60;43.40;;;;;;5094647;28;20020;-74
2022/08/12 12:23:56;;;;;;;4.93;2.50;;;33.90;44.00;;;;;;5094394;28;20074;-74
2022/08/12 12:26:21;;;;;;;4.28;2.30;;;34.20;43.60;;;;;;5094493;28;20073;-81
2022/08/12 12:28:47;;;;;;;3.72;2.50;;;34.20;43.60;;;;;;5095203;28;20030;-78
2022/08/12 12:31:13;;;;;;;4.80;2.40;;;34.00;42.70;;;;;;5094984;28;20024;-78
2022/08/12 12:33:39;;;;;;;3.35;2.30;;;33.70;43.10;;;;;;5093786;28;20020;-84
2022/08/12 12:36:06;;;;;;;3.75;2.50;;;33.90;44.40;;;;;;5094261;28;20032;-75
2022/08/12 12:38:32;;;;;;;3.38;2.42;;;34.00;43.50;;;;;;5094546;28;20394;-76
2022/08/12 12:40:58;;;;;;;6.82;2.20;;;34.20;43.60;;;;;;5094097;28;20051;-77
2022/08/12 12:43:24;;;;;;;4.28;2.20;;;34.20;43.20;;;;;;5094587;28;20440;-75
2022/08/12 12:45:50;;;;;;;4.38;2.20;;;33.40;43.00;;;;;;5094486;28;20008;-72
2022/08/12 12:48:17;;;;;;;5.38;3.17;;;33.20;44.30;;;;;;5094132;28;20467;-76
2022/08/12 12:50:46;;;;;;;4.28;2.38;;;33.50;43.40;;;;;;5094226;28;20493;-76
2022/08/12 12:53:17;;;;;;;6.63;2.38;;;34.00;42.60;;;;;;5094001;28;20513;-76
2022/08/12 12:55:45;;;;;;;4.70;2.30;;;34.20;42.30;;;;;;5093953;28;20036;-77
2022/08/12 12:58:15;;;;;;;3.72;2.53;;;34.30;42.90;;;;;;5094124;28;20047;-75
2022/08/12 13:00:43;;;;;;;;;;;33.90;42.80;;;;;;5093998;28;20016;-75
2022/08/12 13:03:11;;;;;;;4.93;2.40;;;33.80;43.80;;;;;;5092895;28;20305;-76
2022/08/12 13:05:37;;;;;;;5.35;2.40;;;34.10;43.50;;;;;;5075804;28;20077;-75
2022/08/12 13:08:23;;;;;;;4.35;2.45;;;34.30;43.00;;;;;;5093648;28;20552;-75
2022/08/12 13:10:50;;;;;;;4.20;2.20;;;34.30;42.60;;;;;;5075568;28;20028;-79
2022/08/12 13:13:18;;;;;;;4.35;2.38;;;34.00;42.40;;;;;;5093770;28;20032;-75
2022/08/12 13:15:47;;;;;;;3.40;2.20;;;32.90;43.80;;;;;;5093580;28;20035;-76
2022/08/12 13:18:14;;;;;;;4.30;2.50;;;33.50;44.40;;;;;;5093872;28;20066;-75
2022/08/12 13:20:42;;;;;;;3.80;2.40;;;34.20;43.80;;;;;;5094034;28;20081;-76
2022/08/12 13:23:08;;;;;;;4.90;2.30;;;34.50;42.30;;;;;;5093638;28;20028;-76
2022/08/12 13:25:35;;;;;;;10.75;2.60;;;34.80;42.20;;;;;;5075460;28;20432;-86
2022/08/12 13:28:02;;;;;;;8.00;2.90;;;34.90;42.00;;;;;;5093564;28;20467;-80
2022/08/12 13:30:29;;;;;;;8.27;2.50;;;34.60;41.90;;;;;;5093462;28;20024;-75
2022/08/12 13:32:58;;;;;;;3.30;2.28;;;34.20;43.00;;;;;;5093365;28;20107;-78
2022/08/12 13:35:24;;;;;;;3.60;2.30;;;34.50;42.00;;;;;;5109207;28;20448;-75
2022/08/12 13:37:52;;;;;;;3.13;2.22;;;33.90;42.30;;;;;;5093584;28;20407;-75
2022/08/12 13:40:39;;;;;;;3.88;2.30;;;34.00;42.60;;;;;;5093172;28;20539;-75
2022/08/12 13:43:05;;;;;;;5.13;2.50;;;34.60;42.30;;;;;;5092943;28;20028;-75
2022/08/12 13:45:32;;;;;;;4.05;2.25;;;35.10;41.70;;;;;;5093140;28;20012;-76
2022/08/12 13:48:03;;;;;;;4.28;2.60;;;34.90;41.90;;;;;;5093279;28;20051;-75
2022/08/12 13:50:38;;;;;;;4.90;2.28;;;34.90;42.30;;;;;;5093436;28;20448;-75
2022/08/12 13:53:11;;;;;;;5.13;2.20;;;35.00;42.50;;;;;;5092848;28;20036;-76
2022/08/12 13:55:39;;;;;;;3.83;2.35;;;35.20;42.30;;;;;;5092950;28;20040;-78
2022/08/12 13:58:05;;;;;;;3.90;2.33;;;35.20;42.10;;;;;;5093114;28;20032;-75
2022/08/12 14:00:36;;;;;;;4.25;2.28;;;35.10;42.30;;;;;;5092934;28;20024;-74
2022/08/12 14:03:03;;;;;;;3.47;2.28;;;35.20;42.20;;;;;;5093019;28;20020;-74
2022/08/12 14:05:29;;;;;;;3.55;2.22;;;35.10;40.80;;;;;;5092941;28;20024;-78
2022/08/12 14:07:58;;;;;;;4.55;2.25;;;34.90;42.00;;;;;;5093170;28;20039;-75
2022/08/12 14:10:35;;;;;;;4.65;2.40;;;34.80;41.80;;;;;;5092661;28;20060;-75
2022/08/12 14:13:06;;;;;;;5.03;2.42;;;34.80;42.00;;;;;;5093276;28;20462;-74
2022/08/12 14:15:33;;;;;;;3.67;2.20;;;34.70;42.90;;;;;;5095159;28;20130;-75
2022/08/12 14:18:24;;;;;;;3.22;2.25;;;34.50;42.90;;;;;;5097120;28;20024;-76
2022/08/12 14:20:57;;;;;;;3.60;2.67;;;34.70;43.10;;;;;;5096884;28;20103;-84
2022/08/12 14:23:24;;;;;;;3.70;2.20;;;34.60;42.80;;;;;;5096750;28;20474;-74
2022/08/12 14:25:50;;;;;;;3.90;2.20;;;34.80;43.10;;;;;;5096763;28;20106;-76
2022/08/12 14:28:17;;;;;;;4.30;2.40;;;34.80;42.80;;;;;;5096761;28;20027;-74
2022/08/12 14:30:52;;;;;;;4.00;2.70;;;34.70;42.90;;;;;;5097104;28;20027;-75
2022/08/12 14:33:32;;;;;;;3.03;2.10;;;34.80;43.00;;;;;;5097325;28;20050;-80
2022/08/12 14:35:59;;;;;;;3.27;2.33;;;34.60;42.50;;;;;;5097164;28;20047;-75
2022/08/12 14:38:30;;;;;;;4.57;2.38;;;34.70;42.80;;;;;;5097164;28;20268;-80
2022/08/12 14:40:59;;;;;;;4.38;2.20;;;34.60;42.70;;;;;;5097083;28;20410;-75
2022/08/12 14:43:28;;;;;;;3.50;2.30;;;34.50;43.20;;;;;;5096900;28;20471;-85